Time;durP1;ratioP1;P1;durP2;ratioP2;P2;SDS_P1;SDS_P2;PMS_P1;PMS_P2;Temp;Humidity;BMP_temperature;BMP_pressure;BME280_temperature;BME280_humidity;BME280_pressure;Samples;Min_cycle;Max_cycle;Signal;HPM_P1;HPM_P2
2023/10/22 00:02:11;;;;;;;;;4.00;2.00;;;;;21.66;54.32;100025.30;110091;1250;21148;-34
2023/10/22 00:04:39;;;;;;;;;2.00;2.00;;;;;21.65;54.14;100025.47;110029;1251;19820;-34
2023/10/22 00:07:06;;;;;;;;;2.00;2.00;;;;;21.67;54.29;100027.68;110087;1251;19325;-33
2023/10/22 00:09:34;;;;;;;;;4.00;2.00;;;;;21.66;54.27;100028.67;110150;1250;20990;-35
2023/10/22 00:12:01;;;;;;;;;4.00;4.00;;;;;21.67;54.31;100023.27;110157;1250;19647;-34
2023/10/22 00:14:28;;;;;;;;;2.00;2.00;;;;;21.66;54.17;100022.79;110150;1251;17811;-34
2023/10/22 00:16:56;;;;;;;;;4.00;2.00;;;;;21.63;54.05;100016.71;110146;1265;18589;-33
2023/10/22 00:19:23;;;;;;;;;4.00;4.00;;;;;21.64;54.14;100009.01;110125;1251;19733;-34
2023/10/22 00:21:50;;;;;;;;;2.00;2.00;;;;;21.65;54.12;100009.60;110147;1265;18066;-31
2023/10/22 00:24:18;;;;;;;;;4.00;4.00;;;;;21.66;53.89;100010.67;110084;1265;19009;-33
2023/10/22 00:26:46;;;;;;;;;2.00;2.00;;;;;21.64;54.09;100008.58;110153;1251;19735;-34
2023/10/22 00:29:13;;;;;;;;;4.00;2.00;;;;;21.64;53.97;100003.41;110127;1250;19305;-34
2023/10/22 00:31:41;;;;;;;;;2.00;2.00;;;;;21.63;54.21;100003.91;110131;1265;19090;-33
2023/10/22 00:34:08;;;;;;;;;2.00;2.00;;;;;21.65;53.88;100006.39;110066;1253;19712;-32
2023/10/22 00:36:35;;;;;;;;;1.50;1.50;;;;;21.67;53.63;100006.14;110113;1265;18713;-34
2023/10/22 00:39:03;;;;;;;;;2.00;2.00;;;;;21.65;53.71;100011.39;110134;1250;21993;-34
2023/10/22 00:41:30;;;;;;;;;3.00;2.00;;;;;21.65;53.92;100009.66;110138;1251;19732;-33
2023/10/22 00:43:57;;;;;;;;;4.00;4.00;;;;;21.65;53.78;100010.30;110135;1265;21830;-34
2023/10/22 00:46:24;;;;;;;;;2.00;2.00;;;;;21.64;53.89;100008.65;110108;1251;20014;-33
2023/10/22 00:48:52;;;;;;;;;1.00;1.00;;;;;21.64;53.74;100010.71;110117;1249;22250;-34
2023/10/22 00:51:19;;;;;;;;;2.00;2.00;;;;;21.64;53.67;100016.98;110172;1265;17900;-34
2023/10/22 00:53:46;;;;;;;;;1.50;1.50;;;;;21.63;53.80;100017.80;110139;1250;21255;-32
2023/10/22 00:56:14;;;;;;;;;4.00;3.00;;;;;21.62;53.57;100012.70;110133;1265;18253;-32
2023/10/22 00:58:41;;;;;;;;;1.33;1.33;;;;;21.64;53.56;100010.71;110141;1257;21440;-34
2023/10/22 01:01:09;;;;;;;;;2.00;2.00;;;;;21.62;53.63;100011.88;110179;1259;19852;-33
2023/10/22 01:03:37;;;;;;;;;4.00;2.00;;;;;21.61;53.92;100020.62;110142;1265;18209;-34
2023/10/22 01:06:05;;;;;;;;;2.00;2.00;;;;;21.62;53.63;100020.05;110161;1250;20602;-33
2023/10/22 01:08:32;;;;;;;;;2.00;2.00;;;;;21.64;53.64;100015.98;110116;1251;20057;-33
2023/10/22 01:10:59;;;;;;;;;2.00;1.00;;;;;21.62;53.71;100014.72;110113;1265;18183;-33
2023/10/22 01:13:27;;;;;;;;;4.00;2.00;;;;;21.63;53.46;100010.72;110109;1265;18976;-33
2023/10/22 01:15:54;;;;;;;;;2.00;2.00;;;;;21.64;53.78;100009.40;110148;1265;18564;-33
2023/10/22 01:18:21;;;;;;;;;1.00;1.00;;;;;21.63;53.82;100012.67;110135;1265;18235;-33
2023/10/22 01:20:49;;;;;;;;;1.00;1.00;;;;;21.60;53.45;100013.55;110125;1253;19606;-33
2023/10/22 01:23:16;;;;;;;;;2.00;2.00;;;;;21.61;53.50;100012.34;110152;1251;19950;-34
2023/10/22 01:25:43;;;;;;;;;4.50;2.00;;;;;21.62;53.58;100010.85;110122;1250;21679;-33
2023/10/22 01:28:11;;;;;;;;;2.00;2.00;;;;;21.65;53.64;100018.45;110152;1259;19077;-33
2023/10/22 01:30:38;;;;;;;;;2.00;2.00;;;;;21.64;53.47;100025.97;110048;1251;21872;-33
2023/10/22 01:33:06;;;;;;;;;1.33;1.00;;;;;21.65;53.42;100023.84;110041;1251;20340;-33
2023/10/22 01:35:34;;;;;;;;;2.00;2.00;;;;;21.63;53.34;100026.20;110163;1252;19538;-32
2023/10/22 01:38:01;;;;;;;;;4.00;4.00;;;;;21.64;53.54;100031.53;110144;1257;18788;-32
2023/10/22 01:40:28;;;;;;;;;2.00;2.00;;;;;21.65;53.57;100039.10;110130;1265;18227;-33
2023/10/22 01:42:56;;;;;;;;;2.00;2.00;;;;;21.65;53.32;100037.23;110151;1250;20454;-33
2023/10/22 01:45:23;;;;;;;;;2.00;2.00;;;;;21.64;53.39;100042.00;110131;1253;20036;-35
2023/10/22 01:47:50;;;;;;;;;2.00;2.00;;;;;21.66;53.20;100038.42;110066;1250;21538;-34
2023/10/22 01:50:18;;;;;;;;;2.00;2.00;;;;;21.68;53.04;100039.77;110123;1250;19287;-33
2023/10/22 01:52:45;;;;;;;;;2.00;2.00;;;;;21.67;52.96;100034.10;110127;1265;18606;-35
2023/10/22 01:55:13;;;;;;;;;;;;;;;21.67;53.05;100035.54;110155;1250;19716;-34
2023/10/22 01:57:40;;;;;;;;;1.00;1.00;;;;;21.65;53.24;100037.63;109994;1265;21999;-33
2023/10/22 02:00:10;;;;;;;;;2.00;2.00;;;;;21.64;53.06;100036.27;110139;1265;19188;-34
2023/10/22 02:02:37;;;;;;;;;2.00;2.00;;;;;21.63;53.18;100041.41;110131;1259;19707;-33
2023/10/22 02:05:05;;;;;;;;;2.00;2.00;;;;;21.65;53.09;100042.36;110165;1251;19346;-33
2023/10/22 02:07:32;;;;;;;;;1.00;1.00;;;;;21.64;53.09;100039.70;110217;1250;19983;-34
2023/10/22 02:10:00;;;;;;;;;2.00;2.00;;;;;21.63;53.39;100039.34;110131;1265;21456;-34
2023/10/22 02:12:27;;;;;;;;;4.00;2.00;;;;;21.64;53.04;100037.73;110180;1250;22746;-32
2023/10/22 02:14:54;;;;;;;;;2.00;2.00;;;;;21.63;52.98;100037.20;110165;1265;18463;-33
2023/10/22 02:17:21;;;;;;;;;2.00;2.00;;;;;21.63;52.99;100035.52;110123;1265;21895;-33
2023/10/22 02:19:49;;;;;;;;;4.00;2.00;;;;;21.66;52.94;100033.14;110132;1265;17892;-34
2023/10/22 02:22:17;;;;;;;;;4.00;2.00;;;;;21.66;53.06;100035.55;110070;1250;20146;-34
2023/10/22 02:24:44;;;;;;;;;2.00;2.00;;;;;21.65;52.92;100038.71;110115;1251;19688;-33
2023/10/22 02:27:12;;;;;;;;;2.00;2.00;;;;;21.62;53.14;100041.42;110087;1259;19209;-33
2023/10/22 02:29:39;;;;;;;;;1.00;1.00;;;;;21.66;52.96;100035.81;110087;1253;20012;-33
2023/10/22 02:32:06;;;;;;;;;2.00;2.00;;;;;21.66;52.97;100036.67;110148;1265;18220;-33
2023/10/22 02:34:34;;;;;;;;;4.00;2.00;;;;;21.64;53.00;100034.58;110162;1250;20578;-33
2023/10/22 02:37:01;;;;;;;;;2.00;2.00;;;;;21.64;52.96;100030.27;110133;1250;20024;-33
2023/10/22 02:39:28;;;;;;;;;1.00;1.00;;;;;21.63;52.96;100034.98;110134;1250;21775;-33
2023/10/22 02:41:56;;;;;;;;;3.00;2.00;;;;;21.64;52.95;100036.11;110141;1266;21671;-33
2023/10/22 02:44:23;;;;;;;;;2.00;2.00;;;;;21.64;52.87;100039.50;110150;1251;19943;-33
2023/10/22 02:46:50;;;;;;;;;3.33;2.00;;;;;21.63;52.80;100034.48;110122;1257;23122;-33
2023/10/22 02:49:18;;;;;;;;;2.00;2.00;;;;;21.62;52.95;100038.16;110137;1251;19438;-33
2023/10/22 02:51:45;;;;;;;;;2.00;2.00;;;;;21.60;53.18;100039.65;110111;1257;21642;-33
2023/10/22 02:54:12;;;;;;;;;1.50;1.50;;;;;21.63;53.05;100044.41;110178;1265;19464;-33
2023/10/22 02:56:40;;;;;;;;;1.00;1.00;;;;;21.61;52.91;100047.27;110147;1251;19285;-33
2023/10/22 02:59:07;;;;;;;;;1.00;1.00;;;;;21.60;53.07;100044.67;110123;1258;19897;-33
2023/10/22 03:01:35;;;;;;;;;2.00;2.00;;;;;21.57;53.14;100043.73;110147;1250;19612;-33
2023/10/22 03:04:03;;;;;;;;;2.00;2.00;;;;;21.56;53.05;100038.83;110135;1265;17906;-34
2023/10/22 03:06:30;;;;;;;;;4.00;2.00;;;;;21.57;53.08;100038.50;110124;1251;20034;-32
2023/10/22 03:08:58;;;;;;;;;2.00;2.00;;;;;21.58;52.85;100036.79;110134;1250;21627;-33
2023/10/22 03:11:25;;;;;;;;;2.00;2.00;;;;;21.57;53.00;100032.51;110153;1251;19346;-33
2023/10/22 03:13:52;;;;;;;;;2.00;2.00;;;;;21.55;53.01;100026.90;110110;1251;20010;-33
2023/10/22 03:16:20;;;;;;;;;4.00;2.00;;;;;21.58;52.88;100021.15;110149;1251;19956;-32
2023/10/22 03:18:47;;;;;;;;;2.00;2.00;;;;;21.59;52.74;100013.11;110130;1251;19723;-33
2023/10/22 03:21:16;;;;;;;;;2.00;2.00;;;;;21.59;52.88;100015.08;110115;1253;20050;-33
2023/10/22 03:23:43;;;;;;;;;2.00;2.00;;;;;21.57;52.82;100016.04;110141;1250;23105;-33
2023/10/22 03:26:13;;;;;;;;;1.50;1.50;;;;;21.59;52.87;100008.70;110146;1254;19401;-33
2023/10/22 03:28:40;;;;;;;;;2.00;2.00;;;;;21.59;52.82;100008.80;110135;1250;19879;-33
2023/10/22 03:31:07;;;;;;;;;2.00;2.00;;;;;21.60;52.62;100004.54;110137;1259;19542;-33
2023/10/22 03:33:35;;;;;;;;;2.00;2.00;;;;;21.57;52.71;100001.32;110160;1259;19165;-33
2023/10/22 03:36:03;;;;;;;;;1.50;1.50;;;;;21.58;52.68;100001.80;110122;1249;18670;-33
2023/10/22 03:38:31;;;;;;;;;2.00;2.00;;;;;21.56;52.60;99994.90;110137;1265;18304;-34
2023/10/22 03:40:58;;;;;;;;;2.00;2.00;;;;;21.57;52.69;99999.90;110161;1251;19326;-34
2023/10/22 03:43:25;;;;;;;;;1.00;1.00;;;;;21.58;52.64;100000.17;110138;1251;20244;-34
2023/10/22 03:45:53;;;;;;;;;2.00;2.00;;;;;21.57;52.78;99997.88;110137;1258;19724;-34
2023/10/22 03:48:20;;;;;;;;;2.00;2.00;;;;;21.56;52.59;99991.69;110129;1266;22211;-34
2023/10/22 03:50:47;;;;;;;;;1.00;1.00;;;;;21.58;52.66;99988.56;110147;1251;19983;-34
2023/10/22 03:53:15;;;;;;;;;2.00;2.00;;;;;21.56;52.55;99983.02;110126;1258;21357;-34
2023/10/22 03:55:42;;;;;;;;;2.00;2.00;;;;;21.56;52.78;99984.17;110132;1251;19236;-34
2023/10/22 03:58:09;;;;;;;;;1.50;1.50;;;;;21.59;52.52;99982.94;110166;1250;21829;-34
2023/10/22 04:00:37;;;;;;;;;2.00;2.00;;;;;21.58;52.78;99984.14;110123;1251;19659;-34
2023/10/22 04:03:04;;;;;;;;;1.00;1.00;;;;;21.57;52.75;99981.70;110177;1251;19481;-33
2023/10/22 04:05:32;;;;;;;;;4.00;2.00;;;;;21.56;52.54;99975.98;110145;1259;18621;-34
2023/10/22 04:07:59;;;;;;;;;1.00;1.00;;;;;21.54;52.53;99970.45;110149;1250;19625;-34
2023/10/22 04:10:26;;;;;;;;;1.00;1.00;;;;;21.53;52.69;99969.60;110144;1265;18801;-33
2023/10/22 04:12:54;;;;;;;;;2.00;2.00;;;;;21.52;52.64;99967.60;110135;1266;19316;-34
2023/10/22 04:15:21;;;;;;;;;2.00;1.00;;;;;21.52;52.73;99959.86;110114;1266;22600;-34
2023/10/22 04:17:48;;;;;;;;;2.00;2.00;;;;;21.55;52.57;99959.66;110118;1265;19455;-34
2023/10/22 04:20:16;;;;;;;;;2.00;2.00;;;;;21.55;52.59;99952.95;110074;1249;20262;-34
2023/10/22 04:22:43;;;;;;;;;2.00;2.00;;;;;21.56;52.72;99951.80;110117;1265;18223;-34
2023/10/22 04:25:10;;;;;;;;;1.00;1.00;;;;;21.53;52.75;99947.25;110125;1259;19323;-34
2023/10/22 04:27:38;;;;;;;;;1.00;1.00;;;;;21.55;52.66;99940.42;110159;1259;19943;-34
2023/10/22 04:30:07;;;;;;;;;2.00;2.00;;;;;21.51;52.91;99937.86;110103;1251;19624;-34
2023/10/22 04:32:35;;;;;;;;;2.00;2.00;;;;;21.50;52.90;99937.23;110101;1251;19346;-32
2023/10/22 04:35:02;;;;;;;;;2.00;2.00;;;;;21.53;52.69;99937.95;110121;1259;19959;-33
2023/10/22 04:37:30;;;;;;;;;1.00;1.00;;;;;21.53;52.94;99939.91;110073;1266;19528;-33
2023/10/22 04:39:57;;;;;;;;;2.00;2.00;;;;;21.55;52.46;99947.45;110073;1266;19098;-33
2023/10/22 04:42:25;;;;;;;;;2.00;2.00;;;;;21.54;52.68;99948.06;110127;1258;20842;-33
2023/10/22 04:44:52;;;;;;;;;2.00;1.00;;;;;21.55;52.30;99949.63;110148;1265;18214;-33
2023/10/22 04:47:19;;;;;;;;;2.00;2.00;;;;;21.56;52.49;99947.43;110116;1250;19592;-33
2023/10/22 04:49:47;;;;;;;;;2.00;2.00;;;;;21.54;52.49;99945.77;110121;1251;20163;-33
2023/10/22 04:52:22;;;;;;;;;2.00;2.00;;;;;21.56;52.47;99952.07;110148;1251;19648;-33
2023/10/22 04:54:50;;;;;;;;;2.00;1.00;;;;;21.56;52.41;99958.45;110150;1265;17871;-33
2023/10/22 04:57:18;;;;;;;;;2.00;2.00;;;;;21.56;52.49;99954.41;110132;1259;20018;-32
2023/10/22 04:59:46;;;;;;;;;2.00;2.00;;;;;21.55;52.39;99954.10;110128;1252;19670;-33
2023/10/22 05:02:13;;;;;;;;;1.00;1.00;;;;;21.53;52.41;99955.59;110117;1265;17916;-33
2023/10/22 05:04:40;;;;;;;;;1.00;1.00;;;;;21.55;52.48;99962.06;110102;1265;18745;-33
2023/10/22 05:07:07;;;;;;;;;2.00;1.50;;;;;21.55;52.46;99961.46;109835;1265;389662;-33
2023/10/22 05:09:35;;;;;;;;;2.00;2.00;;;;;21.56;52.42;99961.72;110015;1250;20261;-33
2023/10/22 05:12:02;;;;;;;;;1.00;1.00;;;;;21.55;52.61;99958.89;110095;1266;18533;-33
2023/10/22 05:14:29;;;;;;;;;2.00;2.00;;;;;21.57;52.09;99958.54;110116;1266;21718;-33
2023/10/22 05:16:57;;;;;;;;;2.00;2.00;;;;;21.55;52.52;99953.55;110115;1251;19467;-33
2023/10/22 05:19:24;;;;;;;;;2.00;2.00;;;;;21.57;52.37;99948.63;110084;1250;18743;-34
2023/10/22 05:21:51;;;;;;;;;1.00;1.00;;;;;21.55;52.42;99954.09;110045;1253;20336;-33
2023/10/22 05:24:19;;;;;;;;;2.00;2.00;;;;;21.56;52.22;99961.55;110064;1257;19210;-33
2023/10/22 05:26:46;;;;;;;;;1.00;1.00;;;;;21.57;52.28;99962.09;110046;1250;20016;-33
2023/10/22 05:29:13;;;;;;;;;1.50;1.50;;;;;21.56;52.22;99962.98;110158;1251;21811;-33
2023/10/22 05:31:41;;;;;;;;;1.00;1.00;;;;;21.53;52.28;99960.50;110126;1265;17927;-34
2023/10/22 05:34:08;;;;;;;;;2.00;2.00;;;;;21.53;52.40;99961.05;110152;1265;20025;-33
2023/10/22 05:36:36;;;;;;;;;2.00;2.00;;;;;21.52;52.39;99961.23;110190;1265;19571;-34
2023/10/22 05:39:03;;;;;;;;;2.00;2.00;;;;;21.52;52.29;99964.28;110185;1265;19341;-34
2023/10/22 05:41:31;;;;;;;;;1.00;1.00;;;;;21.53;52.39;99969.56;110192;1265;21089;-34
2023/10/22 05:43:59;;;;;;;;;2.00;1.00;;;;;21.51;52.28;99971.27;110162;1251;21369;-34
2023/10/22 05:46:26;;;;;;;;;2.00;2.00;;;;;21.53;52.55;99979.95;110142;1250;19411;-34
2023/10/22 05:48:53;;;;;;;;;2.00;2.00;;;;;21.51;52.40;99982.98;110141;1259;20012;-34
2023/10/22 05:51:21;;;;;;;;;4.00;4.00;;;;;21.52;52.27;99982.65;110086;1253;19680;-33
2023/10/22 05:53:48;;;;;;;;;1.33;1.00;;;;;21.50;52.28;99982.23;110134;1259;19179;-32
2023/10/22 05:56:15;;;;;;;;;2.00;2.00;;;;;21.51;52.48;99983.48;110139;1265;18452;-33
2023/10/22 05:58:42;;;;;;;;;2.00;2.00;;;;;21.51;52.16;99984.63;110146;1265;18162;-32
2023/10/22 06:01:10;;;;;;;;;2.00;2.00;;;;;21.52;52.22;99985.74;110172;1250;20691;-34
2023/10/22 06:03:38;;;;;;;;;1.50;1.50;;;;;21.52;52.41;99992.18;110145;1250;20137;-33
2023/10/22 06:06:05;;;;;;;;;3.00;2.00;;;;;21.50;52.23;99996.13;110114;1250;18147;-34
2023/10/22 06:08:32;;;;;;;;;2.00;2.00;;;;;21.51;52.55;99996.45;110143;1265;17926;-34
2023/10/22 06:11:00;;;;;;;;;4.00;2.00;;;;;21.53;52.50;99998.82;110114;1265;20157;-34
2023/10/22 06:13:27;;;;;;;;;2.00;2.00;;;;;21.51;52.35;99999.50;110142;1250;21517;-34
2023/10/22 06:15:54;;;;;;;;;2.00;2.00;;;;;21.52;52.35;99999.98;110136;1250;17877;-33
2023/10/22 06:18:22;;;;;;;;;2.00;2.00;;;;;21.54;52.14;100002.23;110089;1265;18568;-33
2023/10/22 06:20:49;;;;;;;;;4.00;4.00;;;;;21.52;52.45;100006.95;110117;1250;21760;-33
2023/10/22 06:23:16;;;;;;;;;2.00;2.00;;;;;21.57;52.18;100012.44;110083;1265;17800;-33
2023/10/22 06:25:44;;;;;;;;;4.00;4.00;;;;;21.52;52.15;100011.73;110127;1265;18583;-33
2023/10/22 06:28:11;;;;;;;;;1.00;1.00;;;;;21.56;52.69;100013.76;110129;1266;22076;-32
2023/10/22 06:30:38;;;;;;;;;1.50;1.50;;;;;21.56;52.82;100011.48;110127;1250;19436;-33
2023/10/22 06:33:06;;;;;;;;;2.00;2.00;;;;;21.54;52.80;100015.97;110110;1259;20069;-33
2023/10/22 06:35:33;;;;;;;;;4.00;2.00;;;;;21.57;52.71;100012.98;110149;1265;18211;-33
2023/10/22 06:38:00;;;;;;;;;1.67;1.67;;;;;21.54;52.91;100009.98;110026;1259;19665;-34
2023/10/22 06:40:28;;;;;;;;;3.00;2.00;;;;;21.56;53.02;100008.04;110136;1251;19995;-33
2023/10/22 06:42:55;;;;;;;;;2.00;2.00;;;;;21.61;53.35;100007.70;110109;1265;22145;-33
2023/10/22 06:45:23;;;;;;;;;3.00;3.00;;;;;21.59;53.01;100008.17;110144;1265;17936;-34
2023/10/22 06:47:50;;;;;;;;;2.00;2.00;;;;;21.61;53.21;100011.90;110136;1250;20550;-32
2023/10/22 06:50:18;;;;;;;;;4.00;2.00;;;;;21.66;53.53;100011.77;110141;1265;19579;-33
2023/10/22 06:52:45;;;;;;;;;2.00;2.00;;;;;21.64;53.96;100010.23;110126;1250;20880;-33
2023/10/22 06:55:12;;;;;;;;;2.00;2.00;;;;;21.63;54.56;100009.95;110133;1250;19967;-33
2023/10/22 06:57:40;;;;;;;;;2.00;2.00;;;;;21.65;54.87;100008.13;110144;1265;18247;-33
2023/10/22 07:00:09;;;;;;;;;2.00;2.00;;;;;21.62;54.93;100013.23;110121;1251;19603;-33
2023/10/22 07:02:37;;;;;;;;;3.33;2.67;;;;;21.61;55.55;100009.34;110123;1251;20028;-34
2023/10/22 07:05:07;;;;;;;;;4.00;4.00;;;;;21.63;55.11;100005.23;110080;1250;19641;-33
2023/10/22 07:07:34;;;;;;;;;1.00;1.00;;;;;21.66;55.29;100007.95;110082;1265;17932;-33
2023/10/22 07:10:02;;;;;;;;;4.00;4.00;;;;;21.64;55.06;100003.02;110149;1250;20009;-33
2023/10/22 07:12:30;;;;;;;;;4.00;2.67;;;;;21.67;55.31;100004.34;110132;1250;19783;-33
2023/10/22 07:14:57;;;;;;;;;3.00;3.00;;;;;21.67;55.16;100002.27;110118;1251;19349;-33
2023/10/22 07:17:24;;;;;;;;;2.00;2.00;;;;;21.68;55.32;99997.63;110151;1259;20093;-34
2023/10/22 07:19:52;;;;;;;;;1.00;1.00;;;;;21.65;55.65;99997.19;110113;1250;19652;-33
2023/10/22 07:22:19;;;;;;;;;4.00;4.00;;;;;21.63;56.21;99995.67;110115;1251;19341;-33
2023/10/22 07:24:46;;;;;;;;;2.00;2.00;;;;;21.68;55.66;99995.28;110132;1249;20371;-33
2023/10/22 07:27:14;;;;;;;;;1.00;1.00;;;;;21.64;55.73;99990.86;110160;1265;18173;-33
2023/10/22 07:29:41;;;;;;;;;2.00;2.00;;;;;21.65;56.20;99989.66;110096;1251;19329;-33
2023/10/22 07:32:10;;;;;;;;;2.00;2.00;;;;;21.67;56.17;99982.92;110116;1253;22136;-33
2023/10/22 07:34:37;;;;;;;;;2.00;2.00;;;;;21.66;56.10;99980.14;110143;1265;18272;-33
2023/10/22 07:37:05;;;;;;;;;2.00;2.00;;;;;21.70;55.95;99972.41;110124;1251;19277;-33
2023/10/22 07:39:32;;;;;;;;;2.00;2.00;;;;;21.71;56.08;99972.73;110141;1265;19812;-32
2023/10/22 07:41:59;;;;;;;;;2.00;2.00;;;;;21.72;56.38;99971.45;110131;1259;19472;-33
2023/10/22 07:44:27;;;;;;;;;2.00;2.00;;;;;21.70;56.89;99971.10;110142;1250;21453;-33
2023/10/22 07:46:54;;;;;;;;;4.00;4.00;;;;;21.75;56.47;99971.38;110158;1265;18574;-34
2023/10/22 07:49:21;;;;;;;;;2.00;2.00;;;;;21.72;56.66;99970.80;110120;1265;18151;-38
2023/10/22 07:51:49;;;;;;;;;2.00;2.00;;;;;21.71;56.70;99976.38;110041;1265;18618;-32
2023/10/22 07:54:16;;;;;;;;;2.00;2.00;;;;;21.72;56.86;99976.36;110094;1265;18596;-33
2023/10/22 07:56:43;;;;;;;;;4.50;3.00;;;;;21.69;57.04;99982.30;110154;1249;19703;-32
2023/10/22 07:59:10;;;;;;;;;5.00;4.00;;;;;21.67;56.81;99974.58;110111;1250;21792;-33
2023/10/22 08:01:38;;;;;;;;;4.00;2.00;;;;;21.70;57.28;99973.17;110127;1265;18538;-33
2023/10/22 08:04:05;;;;;;;;;2.00;2.00;;;;;21.71;56.90;99971.80;110125;1265;19066;-32
2023/10/22 08:06:32;;;;;;;;;2.00;2.00;;;;;21.72;56.76;99968.25;110099;1251;19379;-35
2023/10/22 08:09:00;;;;;;;;;4.00;4.00;;;;;21.69;57.13;99965.13;110140;1265;19432;-34
2023/10/22 08:11:27;;;;;;;;;4.00;4.00;;;;;21.71;57.40;99966.13;110095;1250;19367;-33
2023/10/22 08:13:54;;;;;;;;;2.00;2.00;;;;;21.76;58.71;99967.91;110073;1265;19366;-34
2023/10/22 08:16:22;;;;;;;;;1.00;1.00;;;;;21.77;58.57;99967.29;110126;1265;18576;-33
2023/10/22 08:18:49;;;;;;;;;4.00;4.00;;;;;21.78;58.26;99969.95;110144;1251;21521;-33
2023/10/22 08:21:17;;;;;;;;;4.00;2.00;;;;;21.80;58.25;99968.23;110111;1259;19249;-33
2023/10/22 08:23:46;;;;;;;;;2.00;2.00;;;;;21.80;57.58;99966.27;110146;1251;19868;-33
2023/10/22 08:26:14;;;;;;;;;5.00;4.00;;;;;21.79;57.43;99964.20;110157;1260;19496;-33
2023/10/22 08:28:41;;;;;;;;;2.00;2.00;;;;;21.79;57.52;99962.63;110126;1250;19195;-33
2023/10/22 08:31:08;;;;;;;;;2.00;2.00;;;;;21.77;57.63;99960.21;110151;1253;20212;-34
2023/10/22 08:33:36;;;;;;;;;2.00;2.00;;;;;21.75;57.64;99960.89;110125;1265;18999;-34
2023/10/22 08:36:03;;;;;;;;;2.00;2.00;;;;;21.76;57.62;99957.48;110178;1253;19393;-34
2023/10/22 08:38:30;;;;;;;;;2.00;2.00;;;;;21.74;57.59;99958.52;110160;1259;19883;-34
2023/10/22 08:40:58;;;;;;;;;2.00;2.00;;;;;21.75;57.68;99957.30;110166;1265;19524;-34
2023/10/22 08:43:25;;;;;;;;;2.00;2.00;;;;;21.73;57.69;99953.17;110175;1253;19396;-34
2023/10/22 08:45:52;;;;;;;;;4.00;2.00;;;;;21.78;57.05;99947.66;110170;1250;19989;-35
2023/10/22 08:48:20;;;;;;;;;2.00;2.00;;;;;21.78;56.93;99950.80;110177;1251;19662;-35
2023/10/22 08:50:48;;;;;;;;;2.00;2.00;;;;;21.76;56.83;99948.72;110152;1251;19261;-35
2023/10/22 08:53:15;;;;;;;;;1.00;1.00;;;;;21.74;56.66;99945.70;110144;1265;18568;-34
2023/10/22 08:55:42;;;;;;;;;2.00;2.00;;;;;21.68;56.81;99943.27;110139;1265;19546;-34
2023/10/22 08:58:10;;;;;;;;;2.00;2.00;;;;;21.70;56.62;99939.81;110167;1252;19498;-33
2023/10/22 09:00:37;;;;;;;;;2.00;2.00;;;;;21.73;56.46;99938.19;110154;1265;18570;-34
2023/10/22 09:03:04;;;;;;;;;7.00;7.00;;;;;21.72;56.40;99935.16;109956;1259;19647;-34
2023/10/22 09:05:32;;;;;;;;;33.00;29.00;;;;;21.72;56.04;99931.34;109895;1251;20457;-34
2023/10/22 09:07:59;;;;;;;;;2487.50;2453.00;;;;;21.65;56.00;99931.99;109890;1257;21940;-34
2023/10/22 09:10:28;;;;;;;;;364.00;261.00;;;;;21.69;55.89;99936.62;109908;1251;19959;-35
2023/10/22 09:12:55;;;;;;;;;559.00;366.00;;;;;21.66;55.72;99935.73;109871;1254;20082;-33
2023/10/22 09:15:22;;;;;;;;;407.50;301.50;;;;;21.66;55.68;99934.26;109826;1265;18601;-36
2023/10/22 09:17:53;;;;;;;;;350.50;248.00;;;;;21.64;55.46;99938.05;109860;1250;18887;-33
2023/10/22 09:20:20;;;;;;;;;285.00;207.67;;;;;21.65;55.54;99935.79;109811;1251;20091;-33
2023/10/22 09:22:47;;;;;;;;;233.00;182.00;;;;;21.66;55.27;99935.58;109868;1258;19537;-32
2023/10/22 09:25:16;;;;;;;;;182.00;137.00;;;;;21.64;54.98;99934.17;109852;1265;19181;-33
2023/10/22 09:27:43;;;;;;;;;172.33;132.00;;;;;21.65;54.64;99934.77;109833;1251;19997;-34
2023/10/22 09:30:11;;;;;;;;;171.00;126.00;;;;;21.68;54.82;99937.22;110029;1265;18570;-34
2023/10/22 09:32:39;;;;;;;;;130.00;98.00;;;;;21.73;54.43;99936.27;110147;1265;19104;-34
2023/10/22 09:35:06;;;;;;;;;118.50;91.00;;;;;21.77;54.46;99941.17;110142;1251;19901;-35
2023/10/22 09:37:34;;;;;;;;;106.33;75.00;;;;;21.70;54.73;99945.77;110127;1251;19871;-35
2023/10/22 09:40:01;;;;;;;;;93.00;66.50;;;;;21.66;54.38;99947.40;110093;1251;20370;-35
2023/10/22 09:42:28;;;;;;;;;88.00;61.50;;;;;21.63;53.94;99949.24;110163;1265;19383;-34
2023/10/22 09:44:56;;;;;;;;;67.50;52.50;;;;;21.58;53.80;99949.36;110152;1251;20062;-34
2023/10/22 09:47:23;;;;;;;;;72.50;52.50;;;;;21.52;52.69;99952.66;110148;1266;18642;-35
2023/10/22 09:49:50;;;;;;;;;56.00;45.00;;;;;21.46;52.96;99952.64;110135;1250;19428;-35
2023/10/22 09:52:18;;;;;;;;;49.67;42.00;;;;;21.41;53.05;99948.84;110141;1266;19908;-35
2023/10/22 09:54:45;;;;;;;;;44.50;38.00;;;;;21.38;52.89;99950.70;110103;1265;18871;-35
2023/10/22 09:57:13;;;;;;;;;43.67;33.67;;;;;21.36;52.82;99953.55;110114;1259;19659;-35
2023/10/22 09:59:40;;;;;;;;;37.00;32.50;;;;;21.32;52.56;99951.98;110144;1251;20794;-35
2023/10/22 10:02:07;;;;;;;;;37.50;33.00;;;;;21.28;52.33;99951.36;110138;1250;22134;-35
2023/10/22 10:04:35;;;;;;;;;30.00;28.00;;;;;21.27;52.12;99949.95;110125;1265;18858;-35
2023/10/22 10:07:02;;;;;;;;;33.00;25.50;;;;;21.24;52.15;99947.34;110026;1250;20811;-35
2023/10/22 10:09:29;;;;;;;;;29.00;27.00;;;;;21.21;52.22;99945.83;110056;1253;20038;-33
2023/10/22 10:11:57;;;;;;;;;26.50;23.00;;;;;21.19;51.90;99943.44;110107;1266;18885;-34
2023/10/22 10:14:24;;;;;;;;;27.00;22.00;;;;;21.18;51.80;99943.03;110082;1250;21247;-34
2023/10/22 10:16:52;;;;;;;;;25.00;24.00;;;;;21.18;51.99;99941.60;110126;1265;18672;-35
2023/10/22 10:19:20;;;;;;;;;37.00;27.00;;;;;21.15;51.63;99939.36;110093;1265;18786;-34
2023/10/22 10:21:48;;;;;;;;;20.00;17.00;;;;;21.16;51.74;99942.67;110111;1249;21306;-34
2023/10/22 10:24:16;;;;;;;;;17.50;17.00;;;;;21.14;51.77;99940.67;110095;1265;22102;-35
2023/10/22 10:26:44;;;;;;;;;20.00;18.00;;;;;21.13;51.54;99939.55;110108;1265;18696;-34
2023/10/22 10:29:11;;;;;;;;;18.00;18.00;;;;;21.11;51.78;99945.13;110115;1257;19359;-34
2023/10/22 10:31:38;;;;;;;;;20.00;17.00;;;;;21.12;51.61;99940.39;110144;1251;20023;-34
2023/10/22 10:34:07;;;;;;;;;18.00;15.00;;;;;21.14;51.39;99940.68;110110;1265;18697;-33
2023/10/22 10:36:34;;;;;;;;;15.50;15.50;;;;;21.10;51.48;99941.23;110124;1259;20682;-35
2023/10/22 10:39:02;;;;;;;;;21.00;17.00;;;;;21.10;51.37;99938.56;110110;1259;19848;-34
2023/10/22 10:41:29;;;;;;;;;21.50;18.00;;;;;21.10;51.41;99940.02;110095;1251;20127;-34
2023/10/22 10:43:57;;;;;;;;;22.00;21.00;;;;;21.09;51.44;99939.71;110107;1253;22101;-35
2023/10/22 10:46:24;;;;;;;;;21.00;20.00;;;;;21.08;51.55;99937.48;110122;1250;20035;-34
2023/10/22 10:48:52;;;;;;;;;20.50;18.00;;;;;21.08;51.40;99938.81;110143;1250;20204;-35
2023/10/22 10:51:20;;;;;;;;;20.00;17.50;;;;;21.07;51.51;99939.24;110113;1252;20632;-35
2023/10/22 10:53:47;;;;;;;;;23.00;21.00;;;;;21.04;51.68;99940.64;110116;1250;19964;-34
2023/10/22 10:56:14;;;;;;;;;20.00;18.00;;;;;21.06;51.38;99942.27;110096;1249;19952;-34
2023/10/22 10:58:42;;;;;;;;;27.33;23.33;;;;;21.04;51.30;99941.23;110080;1265;19455;-34
2023/10/22 11:01:09;;;;;;;;;17.00;17.00;;;;;21.03;51.35;99945.98;110104;1251;22205;-34
2023/10/22 11:03:37;;;;;;;;;20.00;18.00;;;;;21.04;51.28;99948.80;110102;1257;21173;-34
2023/10/22 11:06:04;;;;;;;;;17.00;17.00;;;;;21.10;51.25;99942.25;110088;1262;21054;-34
2023/10/22 11:08:32;;;;;;;;;21.00;20.00;;;;;21.19;51.17;99940.56;110109;1265;18563;-33
2023/10/22 11:10:59;;;;;;;;;18.00;15.00;;;;;21.26;51.37;99940.88;110106;1265;19379;-33
2023/10/22 11:13:26;;;;;;;;;17.00;15.00;;;;;21.28;51.56;99941.72;110047;1265;20772;-34
2023/10/22 11:15:56;;;;;;;;;17.50;16.50;;;;;21.26;52.28;99940.49;110026;1250;19990;-33
2023/10/22 11:18:24;;;;;;;;;15.00;14.00;;;;;21.35;52.24;99942.83;110039;1251;20102;-38
2023/10/22 11:20:51;;;;;;;;;15.00;14.00;;;;;21.38;53.42;99939.13;110071;1265;19317;-35